Time;durP1;ratioP1;P1;durP2;ratioP2;P2;SDS_P1;SDS_P2;PMS_P1;PMS_P2;Temp;Humidity;BMP_temperature;BMP_pressure;BME280_temperature;BME280_humidity;BME280_pressure;Samples;Min_cycle;Max_cycle;Signal;HPM_P1;HPM_P2
2024/01/08 00:00:25;;;;;;;8.52;5.38;;;-0.90;99.90;;;;;;5070466;28;20139;-75
2024/01/08 00:02:50;;;;;;;8.48;4.90;;;-0.40;99.90;;;;;;5072380;28;20048;-75
2024/01/08 00:05:16;;;;;;;8.13;5.10;;;-0.30;99.90;;;;;;5037866;28;20090;-75
2024/01/08 00:07:42;;;;;;;7.65;4.90;;;-0.90;99.90;;;;;;5072180;28;20040;-75
2024/01/08 00:10:08;;;;;;;9.25;5.45;;;-0.90;99.90;;;;;;5071974;28;20051;-75
2024/01/08 00:12:33;;;;;;;7.65;5.07;;;-0.90;99.90;;;;;;5071071;28;20048;-75
2024/01/08 00:14:59;;;;;;;7.13;5.15;;;-1.00;99.90;;;;;;5071185;28;20054;-75
2024/01/08 00:17:24;;;;;;;9.85;5.53;;;-1.00;99.90;;;;;;5072123;28;20084;-76
2024/01/08 00:19:50;;;;;;;8.15;5.47;;;-0.80;99.90;;;;;;5072103;28;20041;-75
2024/01/08 00:22:16;;;;;;;7.00;4.95;;;-0.30;99.90;;;;;;5069927;28;20131;-75
2024/01/08 00:24:41;;;;;;;7.43;5.22;;;-0.50;99.90;;;;;;5070877;28;20048;-75
2024/01/08 00:27:07;;;;;;;7.45;5.18;;;-1.10;99.90;;;;;;5070874;28;20630;-75
2024/01/08 00:29:33;;;;;;;12.32;5.15;;;-1.20;99.90;;;;;;5071675;28;20483;-75
2024/01/08 00:31:58;;;;;;;9.07;5.00;;;-1.20;99.90;;;;;;5070832;28;20044;-75
2024/01/08 00:34:27;;;;;;;9.82;5.63;;;-1.30;99.90;;;;;;5071334;28;20052;-75
2024/01/08 00:36:53;;;;;;;9.18;5.72;;;-1.30;99.90;;;;;;5070660;28;20083;-75
2024/01/08 00:39:18;;;;;;;9.02;5.20;;;-1.30;99.90;;;;;;5053898;28;20205;-74
2024/01/08 00:41:44;;;;;;;7.90;5.32;;;-1.40;99.90;;;;;;5071921;28;20044;-78
2024/01/08 00:44:10;;;;;;;7.82;5.30;;;-1.40;99.90;;;;;;5054083;28;20055;-78
2024/01/08 00:46:35;;;;;;;9.02;5.82;;;-0.50;99.90;;;;;;5053488;28;20094;-78
2024/01/08 00:49:01;;;;;;;8.57;4.85;;;-1.40;99.90;;;;;;5070914;28;20089;-78
2024/01/08 00:51:27;;;;;;;9.48;5.70;;;-1.50;99.90;;;;;;5071501;28;20045;-75
2024/01/08 00:53:52;;;;;;;8.90;5.22;;;-1.50;99.90;;;;;;5070476;28;20074;-77
2024/01/08 00:56:18;;;;;;;8.82;5.30;;;-1.50;99.90;;;;;;5070474;28;20056;-77
2024/01/08 00:58:44;;;;;;;10.35;5.32;;;-1.50;99.90;;;;;;5071851;28;20091;-78
2024/01/08 01:01:14;;;;;;;11.23;5.80;;;-1.60;99.90;;;;;;5071271;28;20439;-78
2024/01/08 01:03:39;;;;;;;8.55;5.20;;;-1.60;99.90;;;;;;5071051;28;20052;-77
2024/01/08 01:06:05;;;;;;;9.07;5.38;;;-1.70;99.90;;;;;;5071457;28;20537;-78
2024/01/08 01:08:31;;;;;;;11.35;5.47;;;-1.70;99.90;;;;;;5071296;28;20052;-78
2024/01/08 01:10:56;;;;;;;9.23;5.30;;;-1.00;99.90;;;;;;5070180;28;20051;-78
2024/01/08 01:13:22;;;;;;;10.57;5.88;;;-1.70;99.90;;;;;;5069584;28;20102;-77
2024/01/08 01:15:48;;;;;;;10.32;6.15;;;-1.70;99.90;;;;;;5053877;28;20064;-78
2024/01/08 01:18:13;;;;;;;8.13;5.50;;;-1.30;99.90;;;;;;5053808;28;20051;-78
2024/01/08 01:20:39;;;;;;;9.20;5.97;;;-1.70;99.90;;;;;;5071004;28;20044;-78
2024/01/08 01:23:04;;;;;;;7.90;5.90;;;-1.70;99.90;;;;;;5071303;28;20055;-78
2024/01/08 01:25:30;;;;;;;10.15;5.90;;;-1.70;99.90;;;;;;5069706;28;20040;-78
2024/01/08 01:27:56;;;;;;;9.05;5.90;;;-1.70;99.90;;;;;;5053641;28;20052;-78
2024/01/08 01:30:21;;;;;;;9.55;5.85;;;-1.60;99.90;;;;;;5069823;28;20545;-77
2024/01/08 01:32:47;;;;;;;8.88;5.93;;;-1.60;99.90;;;;;;5071497;28;20497;-78
2024/01/08 01:35:13;;;;;;;8.75;5.75;;;-1.40;99.90;;;;;;5070198;28;20049;-76
2024/01/08 01:37:41;;;;;;;9.38;6.20;;;-1.60;99.90;;;;;;5036388;28;20079;-75
2024/01/08 01:40:10;;;;;;;10.13;6.50;;;-1.60;99.90;;;;;;5070303;28;20094;-75
2024/01/08 01:42:35;;;;;;;10.55;5.78;;;-1.60;99.90;;;;;;5071005;28;20403;-78
2024/01/08 01:45:01;;;;;;;9.15;6.40;;;-1.50;99.90;;;;;;5071409;28;20049;-78
2024/01/08 01:47:27;;;;;;;8.80;6.55;;;-1.50;99.90;;;;;;5070091;28;20041;-78
2024/01/08 01:49:54;;;;;;;8.95;6.28;;;-1.50;99.90;;;;;;5069729;28;20041;-79
2024/01/08 01:52:20;;;;;;;10.35;6.13;;;-1.50;99.90;;;;;;5071505;28;20396;-75
2024/01/08 01:54:49;;;;;;;8.77;6.32;;;-1.50;99.90;;;;;;5071135;28;20044;-77
2024/01/08 01:57:15;;;;;;;10.85;6.60;;;-1.50;99.90;;;;;;5071367;28;20080;-76
2024/01/08 01:59:41;;;;;;;9.60;6.35;;;-1.00;99.90;;;;;;5053159;28;20109;-77
2024/01/08 02:02:07;;;;;;;7.45;6.15;;;-1.40;99.90;;;;;;5074360;28;20484;-77
2024/01/08 02:04:33;;;;;;;10.55;6.78;;;-1.50;99.90;;;;;;5072927;28;20094;-77
2024/01/08 02:07:00;;;;;;;11.07;6.38;;;-1.00;99.90;;;;;;5074561;28;20057;-77
2024/01/08 02:09:27;;;;;;;9.02;6.95;;;-0.90;99.90;;;;;;5074004;28;20079;-77
2024/01/08 02:11:53;;;;;;;9.02;6.75;;;-1.40;99.90;;;;;;5073400;28;20202;-77
2024/01/08 02:14:19;;;;;;;8.68;6.55;;;-1.30;99.90;;;;;;5074211;28;20044;-77
2024/01/08 02:16:45;;;;;;;9.65;6.85;;;-1.30;99.90;;;;;;5073939;28;20070;-77
2024/01/08 02:19:11;;;;;;;8.75;6.50;;;-1.30;99.90;;;;;;5056948;28;20092;-77
2024/01/08 02:21:37;;;;;;;11.05;6.95;;;-1.30;99.90;;;;;;5072945;28;20429;-76
2024/01/08 02:24:04;;;;;;;10.25;6.70;;;-1.30;99.90;;;;;;5074534;28;20063;-77
2024/01/08 02:26:30;;;;;;;11.43;7.32;;;-1.20;99.90;;;;;;5072701;28;20396;-77
2024/01/08 02:28:55;;;;;;;10.60;7.47;;;-1.20;99.90;;;;;;5074183;28;20045;-77
2024/01/08 02:31:22;;;;;;;11.98;6.68;;;-1.10;99.90;;;;;;5073192;28;20041;-77
2024/01/08 02:33:48;;;;;;;11.65;7.22;;;-1.10;99.90;;;;;;5073624;28;20127;-77
2024/01/08 02:36:14;;;;;;;10.38;7.30;;;-1.10;99.90;;;;;;5073209;28;20136;-77
2024/01/08 02:38:39;;;;;;;11.70;7.47;;;-0.50;99.90;;;;;;5072321;28;20139;-76
2024/01/08 02:41:05;;;;;;;10.00;7.07;;;-1.10;99.90;;;;;;5074168;28;20052;-77
2024/01/08 02:43:32;;;;;;;12.25;6.88;;;-1.10;99.90;;;;;;5072304;28;20041;-75
2024/01/08 02:45:58;;;;;;;9.55;7.25;;;-0.10;99.90;;;;;;5073787;28;20048;-77
2024/01/08 02:48:23;;;;;;;9.20;7.25;;;-1.00;99.90;;;;;;5073818;28;20044;-77
2024/01/08 02:50:49;;;;;;;8.10;6.38;;;-1.00;99.90;;;;;;5071934;28;20080;-77
2024/01/08 02:53:15;;;;;;;9.90;6.47;;;-1.00;99.90;;;;;;5072304;28;20075;-77
2024/01/08 02:55:41;;;;;;;8.48;6.30;;;-0.90;99.90;;;;;;5071672;28;20040;-76
2024/01/08 02:58:07;;;;;;;8.85;6.05;;;-0.90;99.90;;;;;;5073279;28;20122;-77
2024/01/08 03:00:33;;;;;;;8.60;6.10;;;-0.50;99.90;;;;;;5072816;28;20060;-74
2024/01/08 03:02:59;;;;;;;8.98;6.75;;;-0.80;99.90;;;;;;5072258;28;20432;-77
2024/01/08 03:05:24;;;;;;;9.32;6.10;;;-0.80;99.90;;;;;;5072199;28;20040;-77
2024/01/08 03:07:50;;;;;;;10.00;5.75;;;-0.80;99.90;;;;;;5073046;28;20045;-77
2024/01/08 03:10:16;;;;;;;7.72;5.65;;;-0.70;99.90;;;;;;5072212;28;20049;-77
2024/01/08 03:12:41;;;;;;;8.13;6.28;;;-0.70;99.90;;;;;;5072104;28;20502;-76
2024/01/08 03:15:07;;;;;;;9.23;6.05;;;-0.70;99.90;;;;;;5072165;28;20047;-77
2024/01/08 03:17:34;;;;;;;9.13;6.20;;;-0.80;99.90;;;;;;5071862;28;20040;-75
2024/01/08 03:20:00;;;;;;;9.48;6.45;;;-0.70;99.90;;;;;;5073145;28;20059;-77
2024/01/08 03:22:25;;;;;;;10.45;6.30;;;-0.80;99.90;;;;;;5055478;28;20048;-77
2024/01/08 03:24:51;;;;;;;9.93;6.30;;;-0.70;99.90;;;;;;5071650;28;20384;-76
2024/01/08 03:27:16;;;;;;;8.10;5.65;;;-0.80;99.90;;;;;;5071888;28;20080;-77
2024/01/08 03:29:42;;;;;;;8.13;6.03;;;0.00;99.90;;;;;;5072339;28;20045;-76
2024/01/08 03:32:09;;;;;;;8.43;6.07;;;-0.80;99.90;;;;;;5073041;28;20067;-76
2024/01/08 03:34:35;;;;;;;8.43;6.18;;;-0.80;99.90;;;;;;5071498;28;20059;-77
2024/01/08 03:37:00;;;;;;;9.02;6.10;;;-0.80;99.90;;;;;;5072434;28;20045;-77
2024/01/08 03:39:26;;;;;;;8.25;5.65;;;-0.60;99.90;;;;;;5072979;28;20438;-77
2024/01/08 03:41:52;;;;;;;8.85;6.15;;;-0.80;99.90;;;;;;5054702;28;20041;-76
2024/01/08 03:44:17;;;;;;;8.80;5.55;;;-0.50;99.90;;;;;;5072538;28;20083;-77
2024/01/08 03:46:43;;;;;;;7.15;5.15;;;-0.80;99.90;;;;;;5070959;28;20101;-76
2024/01/08 03:49:09;;;;;;;8.18;5.47;;;-0.70;99.90;;;;;;5072496;28;20040;-78
2024/01/08 03:51:35;;;;;;;9.75;5.65;;;-0.40;99.90;;;;;;5072981;28;20430;-78
2024/01/08 03:54:01;;;;;;;7.15;5.80;;;-0.10;99.90;;;;;;5072111;28;20036;-76
2024/01/08 03:56:27;;;;;;;9.55;5.60;;;-0.70;99.90;;;;;;5072577;28;20499;-77
2024/01/08 03:58:52;;;;;;;7.45;5.00;;;-0.70;99.90;;;;;;5072049;28;20045;-76
2024/01/08 04:01:18;;;;;;;9.05;5.57;;;-0.70;99.90;;;;;;5072433;28;20493;-76
2024/01/08 04:03:44;;;;;;;7.97;5.50;;;-0.80;99.90;;;;;;5071939;28;20178;-76
2024/01/08 04:06:10;;;;;;;9.15;5.28;;;-0.80;99.90;;;;;;5072338;28;20051;-77
2024/01/08 04:08:36;;;;;;;11.32;5.60;;;-0.90;99.90;;;;;;5072320;28;20045;-77
2024/01/08 04:11:02;;;;;;;9.98;6.25;;;-0.90;99.90;;;;;;5070475;28;20044;-76
2024/01/08 04:13:28;;;;;;;10.32;5.57;;;-0.90;99.90;;;;;;5072079;28;20131;-77
2024/01/08 04:15:53;;;;;;;10.63;5.72;;;-0.90;99.90;;;;;;5070668;28;20136;-76
2024/01/08 04:18:19;;;;;;;9.25;5.38;;;-0.90;99.90;;;;;;5070879;28;20048;-77
2024/01/08 04:20:45;;;;;;;7.55;5.30;;;-0.90;99.90;;;;;;5070649;28;20055;-76
2024/01/08 04:23:10;;;;;;;9.48;5.70;;;-0.30;99.90;;;;;;5070898;28;20049;-77
2024/01/08 04:25:36;;;;;;;7.05;5.07;;;-1.00;99.90;;;;;;5071927;28;20051;-76
2024/01/08 04:28:02;;;;;;;8.02;5.00;;;-0.90;99.90;;;;;;5071755;28;20098;-77
2024/01/08 04:30:28;;;;;;;9.40;5.25;;;-1.00;99.90;;;;;;5070945;28;20054;-78
2024/01/08 04:32:54;;;;;;;9.30;5.28;;;-1.00;99.90;;;;;;5070460;28;20041;-76
2024/01/08 04:35:19;;;;;;;8.43;5.65;;;-1.00;99.90;;;;;;5072045;28;20072;-76
2024/01/08 04:37:45;;;;;;;9.65;4.97;;;-1.00;99.90;;;;;;5070898;28;20074;-75
2024/01/08 04:40:11;;;;;;;9.30;5.43;;;-0.10;99.90;;;;;;5070781;28;20056;-76
2024/01/08 04:42:37;;;;;;;9.38;5.00;;;-1.00;99.90;;;;;;5071565;28;20044;-76
2024/01/08 04:45:03;;;;;;;7.70;4.47;;;-1.00;99.90;;;;;;5071488;28;20543;-76
2024/01/08 04:47:29;;;;;;;8.45;4.57;;;-1.00;99.90;;;;;;5071835;28;20399;-75
2024/01/08 04:49:54;;;;;;;8.02;4.95;;;-1.00;99.90;;;;;;5071435;28;20051;-77
2024/01/08 04:52:20;;;;;;;8.18;5.18;;;-1.10;99.90;;;;;;5070591;28;20040;-77
2024/01/08 04:54:46;;;;;;;9.50;4.78;;;-1.10;99.90;;;;;;5070448;28;20052;-76
2024/01/08 04:57:11;;;;;;;7.95;5.30;;;-1.20;99.90;;;;;;5071118;28;20040;-76
2024/01/08 04:59:42;;;;;;;7.80;5.10;;;-1.20;99.90;;;;;;5071741;28;20053;-76
2024/01/08 05:02:11;;;;;;;7.35;4.63;;;-0.80;99.90;;;;;;5071305;28;20064;-75
2024/01/08 05:04:37;;;;;;;6.28;4.15;;;-1.00;99.90;;;;;;5071630;28;20052;-76
2024/01/08 05:07:04;;;;;;;7.15;4.32;;;-0.10;99.90;;;;;;5071205;28;20438;-76
2024/01/08 05:09:30;;;;;;;5.82;4.30;;;-1.40;99.90;;;;;;5070353;28;20363;-76
2024/01/08 05:11:56;;;;;;;6.78;4.68;;;-0.60;99.90;;;;;;5071133;28;20131;-76
2024/01/08 05:14:21;;;;;;;7.60;4.50;;;-0.70;99.90;;;;;;5054074;28;20466;-75
2024/01/08 05:16:47;;;;;;;8.07;4.47;;;-1.50;99.90;;;;;;5071363;28;20048;-75
2024/01/08 05:19:13;;;;;;;7.13;4.20;;;-1.60;99.90;;;;;;5036587;28;20490;-75
2024/01/08 05:21:38;;;;;;;7.47;4.47;;;-1.50;99.90;;;;;;5071052;28;20487;-75
2024/01/08 05:24:05;;;;;;;6.75;4.30;;;-1.60;99.90;;;;;;5070692;28;20131;-75
2024/01/08 05:26:31;;;;;;;7.95;4.60;;;-1.70;99.90;;;;;;5071231;28;20049;-76
2024/01/08 05:28:56;;;;;;;7.40;4.40;;;-1.70;99.90;;;;;;5070859;28;20055;-75
2024/01/08 05:31:22;;;;;;;6.70;4.63;;;-1.70;99.90;;;;;;5069905;28;20101;-75
2024/01/08 05:33:49;;;;;;;8.32;4.97;;;-0.90;99.90;;;;;;5069985;28;20056;-76
2024/01/08 05:36:15;;;;;;;7.40;5.13;;;-0.80;99.90;;;;;;5055548;28;20048;-75
2024/01/08 05:38:41;;;;;;;7.97;5.10;;;-1.70;99.90;;;;;;5073654;28;20123;-75
2024/01/08 05:41:07;;;;;;;6.95;4.50;;;-1.70;99.90;;;;;;5074372;28;20132;-75
2024/01/08 05:43:37;;;;;;;9.80;5.50;;;-1.70;99.90;;;;;;5073595;28;20476;-75
2024/01/08 05:46:05;;;;;;;6.85;5.03;;;-1.80;99.90;;;;;;5056868;28;20515;-74
2024/01/08 05:48:37;;;;;;;8.63;5.13;;;-1.70;99.90;;;;;;5074635;28;20131;-74
2024/01/08 05:51:06;;;;;;;8.40;5.05;;;-1.80;99.90;;;;;;5074304;28;20116;-74
2024/01/08 05:53:32;;;;;;;12.82;5.00;;;-1.40;99.90;;;;;;5056860;28;20106;-74
2024/01/08 05:55:58;;;;;;;9.13;5.57;;;-1.90;99.90;;;;;;5074248;28;20503;-73
2024/01/08 05:58:24;;;;;;;11.07;4.95;;;-1.80;99.90;;;;;;5074302;28;20041;-74
2024/01/08 06:00:53;;;;;;;8.98;5.30;;;-1.90;99.90;;;;;;5072746;28;20064;-74
2024/01/08 06:03:20;;;;;;;8.00;5.20;;;-1.90;99.90;;;;;;5056281;28;20083;-74
2024/01/08 06:05:45;;;;;;;7.72;5.38;;;-1.50;99.90;;;;;;5073214;28;20388;-74
2024/01/08 06:08:11;;;;;;;7.93;5.00;;;-1.90;99.90;;;;;;5074090;28;20071;-74
2024/01/08 06:10:38;;;;;;;7.47;5.05;;;-1.20;99.90;;;;;;5056155;28;20120;-74
2024/01/08 06:13:05;;;;;;;8.82;5.50;;;-1.90;99.90;;;;;;5056534;28;20052;-73
2024/01/08 06:15:30;;;;;;;10.75;5.22;;;-1.90;99.90;;;;;;5056611;28;20179;-74
2024/01/08 06:17:56;;;;;;;8.27;4.78;;;-1.10;99.90;;;;;;5073239;28;20131;-74
2024/01/08 06:20:22;;;;;;;10.50;5.07;;;-1.90;99.90;;;;;;5056147;28;20415;-74
2024/01/08 06:22:47;;;;;;;11.55;5.18;;;-1.80;99.90;;;;;;5074284;28;20169;-75
2024/01/08 06:25:13;;;;;;;10.25;5.38;;;-1.80;99.90;;;;;;5073759;28;20053;-73
2024/01/08 06:27:39;;;;;;;12.32;4.95;;;-1.80;99.90;;;;;;5039676;28;20270;-74
2024/01/08 06:30:05;;;;;;;11.75;5.25;;;-1.80;99.90;;;;;;5072217;28;20078;-73
2024/01/08 06:32:31;;;;;;;10.60;5.20;;;-1.80;99.90;;;;;;5073545;28;20053;-73
2024/01/08 06:34:56;;;;;;;9.35;4.90;;;-1.70;99.90;;;;;;5072649;28;20075;-74
2024/01/08 06:37:22;;;;;;;9.68;5.20;;;-1.70;99.90;;;;;;5073105;28;20229;-74
2024/01/08 06:39:48;;;;;;;13.27;5.05;;;-1.60;99.90;;;;;;5073629;28;20127;-73
2024/01/08 06:42:13;;;;;;;10.77;4.63;;;-1.60;99.90;;;;;;5072336;28;20055;-73
2024/01/08 06:44:39;;;;;;;10.95;5.30;;;-1.40;99.90;;;;;;5074184;28;20037;-74
2024/01/08 06:47:05;;;;;;;11.25;5.43;;;-1.40;99.90;;;;;;5070540;28;20044;-73
2024/01/08 06:49:30;;;;;;;10.45;5.40;;;-1.60;99.90;;;;;;5073490;28;20048;-73
2024/01/08 06:51:59;;;;;;;9.68;5.30;;;-1.50;99.90;;;;;;5072643;28;20048;-73
2024/01/08 06:54:25;;;;;;;10.10;5.03;;;-1.40;99.90;;;;;;5071895;28;20527;-73
2024/01/08 06:56:50;;;;;;;10.38;4.68;;;-1.40;99.90;;;;;;5073464;28;20048;-74
2024/01/08 06:59:16;;;;;;;9.65;4.50;;;-1.30;99.90;;;;;;5072735;28;20491;-73
2024/01/08 07:01:42;;;;;;;7.68;4.18;;;-1.30;99.90;;;;;;5073160;28;20388;-73
2024/01/08 07:04:07;;;;;;;9.15;4.75;;;-1.30;99.90;;;;;;5072947;28;20504;-73
2024/01/08 07:06:33;;;;;;;8.93;4.15;;;-1.00;99.90;;;;;;5072823;28;20373;-74
2024/01/08 07:08:59;;;;;;;8.30;4.32;;;-1.20;99.90;;;;;;5072932;28;20137;-74
2024/01/08 07:11:25;;;;;;;11.25;4.78;;;-1.20;99.90;;;;;;5072797;28;20174;-73
2024/01/08 07:13:51;;;;;;;8.90;4.55;;;-1.20;99.90;;;;;;5073134;28;20174;-73
2024/01/08 07:16:17;;;;;;;10.05;5.05;;;-0.20;99.90;;;;;;5072694;28;20048;-73
2024/01/08 07:18:43;;;;;;;8.57;4.72;;;-1.20;99.90;;;;;;5071452;28;20056;-73
2024/01/08 07:21:11;;;;;;;11.70;4.90;;;-1.10;99.90;;;;;;5072755;28;20166;-73
2024/01/08 07:23:37;;;;;;;10.30;4.70;;;-1.20;99.90;;;;;;5072991;28;20053;-73
2024/01/08 07:26:03;;;;;;;7.97;4.32;;;-1.10;99.90;;;;;;5054729;28;20048;-73
2024/01/08 07:28:29;;;;;;;10.77;4.75;;;-1.10;99.90;;;;;;5071244;28;20052;-73
2024/01/08 07:30:55;;;;;;;9.52;5.10;;;-1.10;99.90;;;;;;5071259;28;20048;-74
2024/01/08 07:33:23;;;;;;;9.15;5.00;;;-1.10;99.90;;;;;;5071194;28;20045;-73
2024/01/08 07:35:49;;;;;;;10.13;5.03;;;-1.10;99.90;;;;;;5072782;28;20098;-72
2024/01/08 07:38:15;;;;;;;8.75;4.72;;;-1.00;99.90;;;;;;5070972;28;20040;-72
2024/01/08 07:40:40;;;;;;;9.05;4.72;;;-1.10;99.90;;;;;;5072395;28;20166;-71
2024/01/08 07:43:06;;;;;;;10.07;4.68;;;-1.00;99.90;;;;;;5072383;28;20045;-71
2024/01/08 07:45:32;;;;;;;8.32;4.43;;;-1.00;99.90;;;;;;5070726;28;20119;-71
2024/01/08 07:47:58;;;;;;;10.32;5.45;;;-1.00;99.90;;;;;;5071496;28;20052;-72
2024/01/08 07:50:23;;;;;;;12.50;6.72;;;-1.00;99.90;;;;;;5071953;28;20047;-73
2024/01/08 07:52:49;;;;;;;10.85;5.57;;;-1.00;99.90;;;;;;5071350;28;20095;-73
2024/01/08 07:55:16;;;;;;;15.35;6.32;;;-1.00;99.90;;;;;;5071203;28;20044;-73
2024/01/08 07:57:41;;;;;;;14.38;7.45;;;-0.90;99.90;;;;;;5071133;28;20052;-71
2024/01/08 08:00:11;;;;;;;9.70;4.55;;;-0.90;99.90;;;;;;5070694;28;20481;-71
2024/01/08 08:02:38;;;;;;;10.57;4.70;;;-0.90;99.90;;;;;;5054681;28;20701;-72
2024/01/08 08:05:04;;;;;;;7.10;4.00;;;-0.50;99.90;;;;;;5070844;28;20052;-72
2024/01/08 08:07:30;;;;;;;7.68;4.60;;;-0.60;99.90;;;;;;5071612;28;20109;-72
2024/01/08 08:09:55;;;;;;;10.73;4.38;;;-0.50;99.90;;;;;;5072285;28;20044;-69
2024/01/08 08:12:21;;;;;;;10.77;4.72;;;-0.90;99.90;;;;;;5070774;28;20468;-74
2024/01/08 08:14:48;;;;;;;9.82;4.53;;;-0.90;99.90;;;;;;5071682;28;20395;-74
2024/01/08 08:17:14;;;;;;;6.65;4.35;;;-0.80;99.90;;;;;;5071979;28;20048;-75
2024/01/08 08:19:42;;;;;;;9.30;4.45;;;-0.80;99.90;;;;;;5053671;28;20049;-74
2024/01/08 08:22:11;;;;;;;10.00;4.43;;;-0.90;99.90;;;;;;5071051;28;20052;-74
2024/01/08 08:24:40;;;;;;;8.35;4.22;;;-0.80;99.90;;;;;;5070425;28;20048;-74
2024/01/08 08:27:09;;;;;;;8.50;4.35;;;-0.80;99.90;;;;;;5070803;28;20049;-75
2024/01/08 08:29:45;;;;;;;7.63;4.20;;;-0.80;99.90;;;;;;5070620;28;20379;-74
2024/01/08 08:32:12;;;;;;;10.18;3.90;;;-0.80;99.90;;;;;;5070744;28;20045;-74
2024/01/08 08:34:39;;;;;;;8.45;3.72;;;-0.80;99.90;;;;;;5071379;28;20099;-74
2024/01/08 08:37:08;;;;;;;9.23;4.32;;;-0.70;99.90;;;;;;5071469;28;20048;-74
2024/01/08 08:39:34;;;;;;;6.80;3.83;;;-0.70;99.90;;;;;;5071216;28;20060;-74
2024/01/08 08:42:00;;;;;;;12.15;4.38;;;-0.70;99.90;;;;;;5070651;28;20052;-74
2024/01/08 08:44:26;;;;;;;8.63;3.90;;;0.00;99.90;;;;;;5070254;28;20194;-73
2024/01/08 08:46:52;;;;;;;8.50;3.92;;;-0.70;99.90;;;;;;5070257;28;20049;-74
2024/01/08 08:49:18;;;;;;;10.40;4.55;;;-0.70;99.90;;;;;;5071349;28;20137;-74
2024/01/08 08:51:44;;;;;;;8.68;4.20;;;-0.60;99.90;;;;;;5071245;28;20075;-74
2024/01/08 08:54:09;;;;;;;7.82;4.05;;;-0.60;99.90;;;;;;5071631;28;20055;-72
2024/01/08 08:56:36;;;;;;;9.25;4.00;;;0.30;99.90;;;;;;5052886;28;20052;-73
2024/01/08 08:59:02;;;;;;;10.32;3.92;;;-0.30;99.90;;;;;;5071471;28;20401;-74
2024/01/08 09:01:28;;;;;;;8.25;3.47;;;0.20;99.90;;;;;;5070770;28;20092;-73
2024/01/08 09:03:54;;;;;;;8.75;3.83;;;-0.50;99.90;;;;;;5071796;28;20044;-73
2024/01/08 09:06:23;;;;;;;9.35;3.85;;;-0.50;99.90;;;;;;5071645;28;20369;-73
2024/01/08 09:08:50;;;;;;;9.35;3.80;;;-0.40;99.90;;;;;;5070955;28;20044;-73
2024/01/08 09:11:16;;;;;;;9.13;4.43;;;-0.40;99.90;;;;;;5072509;28;20044;-73
2024/01/08 09:13:42;;;;;;;8.50;3.58;;;-0.40;99.90;;;;;;5073771;28;20122;-73
2024/01/08 09:16:12;;;;;;;7.22;3.58;;;-0.40;99.90;;;;;;5074620;28;20049;-74
2024/01/08 09:18:38;;;;;;;8.10;3.50;;;-0.30;99.90;;;;;;5074985;28;20483;-73
2024/01/08 09:21:07;;;;;;;7.97;3.47;;;-0.30;99.90;;;;;;5074469;28;20092;-73
2024/01/08 09:23:32;;;;;;;9.07;3.78;;;-0.40;99.90;;;;;;5074094;28;20055;-73
2024/01/08 09:25:59;;;;;;;6.63;3.30;;;-0.30;99.90;;;;;;5075414;28;20131;-73
2024/01/08 09:28:25;;;;;;;7.47;3.42;;;-0.30;99.90;;;;;;5075030;28;20462;-73
2024/01/08 09:30:52;;;;;;;7.20;3.75;;;-0.20;99.90;;;;;;5074083;28;20125;-73
2024/01/08 09:33:19;;;;;;;7.03;4.07;;;-0.30;99.90;;;;;;5075193;28;20074;-74
2024/01/08 09:35:44;;;;;;;6.22;3.10;;;-0.30;99.90;;;;;;5075108;28;20120;-74
2024/01/08 09:38:10;;;;;;;6.00;2.97;;;-0.20;99.90;;;;;;5075315;28;20173;-73
2024/01/08 09:40:36;;;;;;;4.90;3.20;;;-0.20;99.90;;;;;;5074337;28;20119;-74
2024/01/08 09:43:06;;;;;;;5.43;3.50;;;-0.20;99.90;;;;;;5073673;28;20052;-73
2024/01/08 09:45:32;;;;;;;5.53;3.42;;;-0.20;99.90;;;;;;5073371;28;20048;-73
2024/01/08 09:47:58;;;;;;;5.82;3.58;;;-0.20;99.90;;;;;;5074985;28;20386;-72
2024/01/08 09:50:28;;;;;;;7.10;3.92;;;-0.20;99.90;;;;;;5056976;28;20040;-72
2024/01/08 09:52:55;;;;;;;7.25;3.50;;;-0.20;99.90;;;;;;5073336;28;20438;-74
2024/01/08 09:55:21;;;;;;;5.85;3.20;;;-0.20;99.90;;;;;;5074690;28;20076;-72
2024/01/08 09:57:47;;;;;;;8.38;4.00;;;-0.20;99.90;;;;;;5073276;28;20391;-72
2024/01/08 10:00:14;;;;;;;9.10;3.55;;;0.50;99.90;;;;;;5074653;28;20041;-72
2024/01/08 10:02:40;;;;;;;7.03;3.13;;;-0.20;99.90;;;;;;5074288;28;20052;-75
2024/01/08 10:05:07;;;;;;;7.78;3.83;;;-0.20;99.90;;;;;;5073458;28;20369;-72
2024/01/08 10:07:35;;;;;;;7.03;3.85;;;-0.20;99.90;;;;;;5074652;28;20078;-74
2024/01/08 10:10:01;;;;;;;7.32;3.70;;;-0.30;99.90;;;;;;5073685;28;20429;-72
2024/01/08 10:12:28;;;;;;;6.13;3.92;;;-0.10;99.90;;;;;;5074439;28;20040;-74
2024/01/08 10:14:57;;;;;;;7.60;3.45;;;-0.10;99.90;;;;;;5072843;28;20087;-74
2024/01/08 10:17:22;;;;;;;7.63;3.90;;;-0.30;99.90;;;;;;5074335;28;20041;-74
2024/01/08 10:19:48;;;;;;;8.23;3.92;;;-0.20;99.90;;;;;;5073079;28;20059;-72
2024/01/08 10:22:15;;;;;;;6.38;3.80;;;-0.10;99.90;;;;;;5073880;28;20044;-72
2024/01/08 10:24:42;;;;;;;6.85;4.20;;;-0.10;99.90;;;;;;5073942;28;20399;-72
2024/01/08 10:27:09;;;;;;;6.43;3.70;;;0.50;99.90;;;;;;5074185;28;20431;-72
2024/01/08 10:29:40;;;;;;;7.97;3.42;;;-0.10;99.90;;;;;;5074191;28;20080;-71
2024/01/08 10:32:07;;;;;;;8.18;3.63;;;-0.10;99.90;;;;;;5056499;28;20040;-72
2024/01/08 10:34:36;;;;;;;4.82;3.40;;;-0.10;99.90;;;;;;5074181;28;20140;-71
2024/01/08 10:37:01;;;;;;;8.63;4.00;;;0.30;99.90;;;;;;5073963;28;20053;-73
2024/01/08 10:39:30;;;;;;;8.80;4.53;;;-0.10;99.90;;;;;;5073971;28;20053;-71
2024/01/08 10:41:57;;;;;;;7.88;3.75;;;-0.10;99.90;;;;;;5073403;28;20444;-71
2024/01/08 10:44:24;;;;;;;8.40;4.20;;;-0.10;99.90;;;;;;5073710;28;20048;-72
2024/01/08 10:47:03;;;;;;;7.15;3.45;;;-0.10;99.90;;;;;;5072241;28;20494;-73
2024/01/08 10:49:33;;;;;;;6.05;3.38;;;0.00;99.90;;;;;;5073590;28;20075;-73
2024/01/08 10:52:24;;;;;;;9.93;3.72;;;0.00;99.90;;;;;;5072967;28;20103;-72
2024/01/08 10:54:57;;;;;;;5.72;3.30;;;0.00;99.90;;;;;;5072986;28;20059;-73
2024/01/08 10:57:43;;;;;;;7.35;3.15;;;0.10;99.90;;;;;;5073528;28;20127;-74
2024/01/08 11:00:12;;;;;;;9.60;3.30;;;0.10;99.90;;;;;;5072314;28;20056;-73
2024/01/08 11:02:39;;;;;;;7.13;3.10;;;0.10;99.90;;;;;;5073639;28;20138;-73
2024/01/08 11:05:06;;;;;;;6.50;3.25;;;0.20;99.90;;;;;;5072855;28;20087;-73
2024/01/08 11:07:37;;;;;;;4.72;3.25;;;0.10;99.90;;;;;;5072611;28;20053;-73
2024/01/08 11:10:04;;;;;;;7.70;3.47;;;0.10;99.90;;;;;;5054818;28;20056;-73
2024/01/08 11:12:31;;;;;;;5.47;3.58;;;0.20;99.90;;;;;;5072430;28;20053;-73
2024/01/08 11:15:04;;;;;;;7.63;3.53;;;0.10;99.90;;;;;;5054948;28;20057;-74
2024/01/08 11:17:30;;;;;;;6.80;4.18;;;0.20;99.90;;;;;;5072277;28;20056;-73
2024/01/08 11:19:57;;;;;;;4.75;3.40;;;0.20;99.90;;;;;;5072735;28;20462;-73
2024/01/08 11:22:23;;;;;;;7.22;3.60;;;0.20;99.90;;;;;;5071782;28;20458;-73
2024/01/08 11:24:49;;;;;;;6.55;3.78;;;0.70;99.90;;;;;;5072678;28;20227;-73
2024/01/08 11:27:20;;;;;;;6.72;3.65;;;0.20;99.90;;;;;;5071600;28;20048;-73
2024/01/08 11:29:58;;;;;;;5.88;3.38;;;0.20;99.90;;;;;;5072644;28;20033;-75
2024/01/08 11:32:36;;;;;;;7.57;3.20;;;0.20;99.90;;;;;;5071375;28;20139;-74
2024/01/08 11:35:07;;;;;;;6.63;3.38;;;0.20;99.90;;;;;;5071196;28;20056;-73
2024/01/08 11:37:55;;;;;;;8.00;3.78;;;0.20;99.90;;;;;;5072571;28;20542;-73
2024/01/08 11:40:21;;;;;;;7.72;3.58;;;0.10;99.90;;;;;;5072340;28;20586;-73
2024/01/08 11:42:50;;;;;;;7.97;3.65;;;0.10;99.90;;;;;;5072656;28;20079;-72
2024/01/08 11:45:16;;;;;;;5.97;3.30;;;0.10;99.90;;;;;;5072721;28;20071;-73
2024/01/08 11:47:45;;;;;;;6.32;3.10;;;0.20;99.90;;;;;;5054729;28;20439;-73
2024/01/08 11:50:12;;;;;;;5.35;3.33;;;0.20;99.90;;;;;;5072271;28;20095;-73
2024/01/08 11:52:39;;;;;;;4.68;2.97;;;0.10;99.90;;;;;;5072573;28;20139;-73
2024/01/08 11:55:07;;;;;;;5.50;3.40;;;0.20;99.90;;;;;;5072284;28;20048;-73
2024/01/08 11:57:34;;;;;;;5.25;3.40;;;0.20;99.90;;;;;;5072124;28;20045;-73
2024/01/08 12:00:13;;;;;;;5.68;3.40;;;0.20;99.90;;;;;;5071841;28;20044;-71
2024/01/08 12:02:39;;;;;;;4.85;2.72;;;0.20;99.90;;;;;;5071006;28;20052;-72
2024/01/08 12:05:05;;;;;;;5.50;3.38;;;0.20;99.90;;;;;;5070558;28;20048;-71
2024/01/08 12:07:37;;;;;;;7.30;3.25;;;0.30;99.90;;;;;;5072457;28;20155;-75
2024/01/08 12:10:04;;;;;;;5.93;2.83;;;0.10;99.90;;;;;;5071742;28;20045;-72
2024/01/08 12:12:30;;;;;;;7.72;3.28;;;0.20;99.90;;;;;;5054212;28;20060;-72
2024/01/08 12:14:56;;;;;;;4.57;3.17;;;0.10;99.90;;;;;;5069561;28;20490;-70
2024/01/08 12:17:22;;;;;;;6.80;3.38;;;1.10;99.90;;;;;;5070935;28;20048;-72
2024/01/08 12:19:53;;;;;;;6.45;3.70;;;0.10;99.90;;;;;;5069833;28;20052;-72
2024/01/08 12:22:19;;;;;;;6.55;3.13;;;0.30;99.90;;;;;;5070529;28;20128;-72
2024/01/08 12:24:50;;;;;;;5.40;3.38;;;0.20;99.90;;;;;;5070100;28;20467;-72
2024/01/08 12:27:18;;;;;;;6.47;3.42;;;0.10;99.90;;;;;;5069229;28;20280;-74
2024/01/08 12:29:45;;;;;;;5.28;3.33;;;0.10;99.90;;;;;;5069894;28;20052;-73
2024/01/08 12:32:15;;;;;;;7.38;3.38;;;0.10;99.90;;;;;;5070318;28;20053;-73
2024/01/08 12:34:41;;;;;;;8.35;3.60;;;0.30;99.90;;;;;;5071573;28;20041;-72
2024/01/08 12:37:11;;;;;;;6.18;3.20;;;0.40;99.90;;;;;;5070911;28;20121;-75
2024/01/08 12:39:38;;;;;;;6.70;3.20;;;0.00;99.90;;;;;;5071728;28;20044;-73
2024/01/08 12:42:10;;;;;;;4.60;2.80;;;0.00;99.90;;;;;;5071304;28;20056;-73